createdAt,value
2019-01-29T00:09:35.665Z,4.7
2019-01-29T00:19:39.097Z,4.6
2019-01-29T00:29:42.517Z,4.2
2019-01-29T00:39:45.973Z,4.4
2019-01-29T00:49:49.371Z,4.6
2019-01-29T00:59:52.807Z,4.7
2019-01-29T01:09:57.173Z,4.6
2019-01-29T01:20:00.910Z,4.6
2019-01-29T01:30:04.376Z,4.4
2019-01-29T01:40:07.868Z,4.5
2019-01-29T01:50:11.310Z,4.3
2019-01-29T02:00:14.740Z,-4.4
2019-01-29T02:10:18.141Z,4.3
2019-01-29T02:20:21.600Z,4.3
2019-01-29T02:30:25.043Z,4.3
2019-01-29T02:40:28.466Z,4.3
2019-01-29T02:50:31.896Z,4.2
2019-01-29T03:00:35.345Z,4.3
2019-01-29T03:10:38.763Z,4.3
2019-01-29T03:20:42.206Z,4.2
2019-01-29T03:30:45.626Z,4.3
2019-01-29T03:40:49.083Z,4.2
2019-01-29T03:50:52.527Z,4
2019-01-29T04:00:55.943Z,3.9
2019-01-29T04:10:59.415Z,4.1
2019-01-29T04:21:02.875Z,4.2
2019-01-29T04:31:06.296Z,4.3
2019-01-29T04:41:09.688Z,4.3
2019-01-29T04:51:13.157Z,4.2
2019-01-29T05:01:18.430Z,4.1
2019-01-29T05:11:21.892Z,4.3
2019-01-29T05:21:25.338Z,4.3
2019-01-29T05:31:28.783Z,4.4
2019-01-29T05:41:32.302Z,4.2
2019-01-29T05:51:35.719Z,4.1
2019-01-29T06:01:39.158Z,4.2
2019-01-29T06:11:42.592Z,4.3
2019-01-29T06:21:46.038Z,4.2
2019-01-29T06:31:49.455Z,4.3
2019-01-29T06:41:52.897Z,4.2
2019-01-29T06:51:56.349Z,4.2
2019-01-29T07:01:59.726Z,4.2
2019-01-29T07:12:03.155Z,4.2
2019-01-29T07:22:06.543Z,4.2
2019-01-29T07:32:09.980Z,4.3
2019-01-29T07:42:13.361Z,4.3
2019-01-29T07:52:16.798Z,4.2
2019-01-29T08:02:20.258Z,4.4
2019-01-29T08:12:23.668Z,4.4
2019-01-29T08:22:27.093Z,4.7
2019-01-29T08:32:30.499Z,4.6
2019-01-29T08:42:33.974Z,4.8
2019-01-29T08:52:37.425Z,4.8
2019-01-29T09:02:40.865Z,4.8
2019-01-29T09:12:44.383Z,4.9
2019-01-29T09:22:47.816Z,4.7
2019-01-29T09:32:51.257Z,5.5
2019-01-29T09:42:54.695Z,6.1
2019-01-29T09:52:58.164Z,5.8
2019-01-29T10:03:01.573Z,5.5
2019-01-29T10:13:04.981Z,5.7
2019-01-29T10:23:08.447Z,6.3
2019-01-29T10:33:11.872Z,6.4
2019-01-29T10:43:15.268Z,7
2019-01-29T10:53:18.729Z,7.4
2019-01-29T11:03:22.138Z,7.3
2019-01-29T11:13:25.587Z,7.5
2019-01-29T11:23:29.043Z,7.6
2019-01-29T11:33:33.480Z,7.4
2019-01-29T11:43:36.896Z,7.3
2019-01-29T11:53:40.302Z,6.9
2019-01-29T12:03:43.752Z,7
2019-01-29T12:13:47.207Z,6.8
2019-01-29T12:23:50.659Z,6.8
2019-01-29T12:33:54.090Z,6.7
2019-01-29T12:43:57.509Z,6.9
2019-01-29T12:54:00.913Z,6.9
2019-01-29T13:04:04.356Z,7.1
2019-01-29T13:14:07.795Z,7
2019-01-29T13:24:11.193Z,6.7
2019-01-29T13:34:14.586Z,6.6
2019-01-29T13:44:17.970Z,6.8
2019-01-29T13:54:21.384Z,6.5
2019-01-29T14:04:24.793Z,6.5
2019-01-29T14:14:28.224Z,6.4
2019-01-29T14:24:31.664Z,6.6
2019-01-29T14:34:35.067Z,6.6
2019-01-29T14:44:38.472Z,6.8
2019-01-29T14:54:41.917Z,6.8
2019-01-29T15:04:45.515Z,6.8
2019-01-29T15:14:48.935Z,6.7
2019-01-29T15:24:52.365Z,6.7
2019-01-29T15:34:55.759Z,6.5
2019-01-29T15:44:59.152Z,6.5
2019-01-29T15:55:02.593Z,6.5
2019-01-29T16:05:05.994Z,6.4
2019-01-29T16:15:09.424Z,6.3
2019-01-29T16:25:12.855Z,6.1
2019-01-29T16:35:16.256Z,5.9
2019-01-29T16:45:19.716Z,5.8
2019-01-29T16:55:23.136Z,5.5
2019-01-29T17:05:26.537Z,5.3
2019-01-29T17:15:29.965Z,5.3
2019-01-29T17:25:33.397Z,5.2
2019-01-29T17:35:36.815Z,5.3
2019-01-29T17:45:40.248Z,4.9
2019-01-29T17:55:43.708Z,4.7
2019-01-29T18:05:47.136Z,4.5
2019-01-29T18:15:50.582Z,4.4
2019-01-29T18:25:54.165Z,4.2
2019-01-29T18:35:58.404Z,4.2
2019-01-29T18:46:01.805Z,4.3
2019-01-29T18:56:05.215Z,4.2
2019-01-29T19:06:08.609Z,4.1
2019-01-29T19:16:12.055Z,4.1
2019-01-29T19:26:15.523Z,3.8
2019-01-29T19:36:18.924Z,3.8
2019-01-29T19:46:22.388Z,3.9
2019-01-29T19:56:25.813Z,3.9
2019-01-29T20:06:30.847Z,3.9
2019-01-29T20:16:34.543Z,3.9
2019-01-29T20:26:37.991Z,4
2019-01-29T20:36:41.421Z,4.1
2019-01-29T20:46:44.869Z,4
2019-01-29T20:56:48.262Z,3.9
2019-01-29T21:06:51.701Z,3.9
2019-01-29T21:16:55.131Z,3.6
2019-01-29T21:26:58.540Z,3.6
2019-01-29T21:37:01.933Z,3.6
2019-01-29T21:47:05.383Z,3.4
2019-01-29T21:57:08.816Z,3.3
2019-01-29T22:07:13.232Z,3.3
2019-01-29T22:17:16.670Z,3.2
2019-01-29T22:27:20.097Z,3.3
2019-01-29T22:37:23.511Z,3.2
2019-01-29T22:47:26.955Z,3.1
2019-01-29T22:57:30.351Z,3.1
2019-01-29T23:07:33.762Z,3
2019-01-29T23:17:37.192Z,3
2019-01-29T23:27:40.580Z,2.9
2019-01-29T23:37:44.027Z,2.9
2019-01-29T23:47:47.456Z,2.9
2019-01-29T23:57:50.860Z,2.9
